createdAt,value
2023-04-19T00:02:26.524Z,39.23
2023-04-19T00:04:55.863Z,39.23
2023-04-19T00:07:24.264Z,39.53
2023-04-19T00:09:52.678Z,39.35
2023-04-19T00:12:21.728Z,39.17
2023-04-19T00:14:49.955Z,39.30
2023-04-19T00:17:18.438Z,39.16
2023-04-19T00:19:47.183Z,39.25
2023-04-19T00:22:15.867Z,39.29
2023-04-19T00:24:44.348Z,39.34
2023-04-19T00:27:12.888Z,38.90
2023-04-19T00:29:41.214Z,38.89
2023-04-19T00:32:09.748Z,38.59
2023-04-19T00:34:38.019Z,38.99
2023-04-19T00:37:06.952Z,39.07
2023-04-19T00:39:35.355Z,39.01
2023-04-19T00:42:06.062Z,39.19
2023-04-19T00:44:35.578Z,39.30
2023-04-19T00:47:03.929Z,39.36
2023-04-19T00:49:32.544Z,39.53
2023-04-19T00:52:01.063Z,39.60
2023-04-19T00:54:30.042Z,39.55
2023-04-19T00:56:58.673Z,39.50
2023-04-19T00:59:27.168Z,39.89
2023-04-19T01:01:55.723Z,39.60
2023-04-19T01:04:24.392Z,39.36
2023-04-19T01:06:52.846Z,39.43
2023-04-19T01:09:21.304Z,39.48
2023-04-19T01:11:50.889Z,39.07
2023-04-19T01:14:19.116Z,40.02
2023-04-19T01:16:48.419Z,40.06
2023-04-19T01:19:16.974Z,39.37
2023-04-19T01:21:46.546Z,39.52
2023-04-19T01:24:14.986Z,40.18
2023-04-19T01:26:43.759Z,39.50
2023-04-19T01:29:12.357Z,39.89
2023-04-19T01:31:41.263Z,40.12
2023-04-19T01:34:09.592Z,40.13
2023-04-19T01:36:40.120Z,40.16
2023-04-19T01:39:08.462Z,40.65
2023-04-19T01:41:37.114Z,41.14
2023-04-19T01:44:05.472Z,40.89
2023-04-19T01:46:34.892Z,41.03
2023-04-19T01:49:03.826Z,41.48
2023-04-19T01:51:33.287Z,40.99
2023-04-19T01:54:02.887Z,40.66
2023-04-19T01:56:31.857Z,40.70
2023-04-19T01:59:00.399Z,40.43
2023-04-19T02:01:28.865Z,40.58
2023-04-19T02:03:57.683Z,40.71
2023-04-19T02:06:27.430Z,40.58
2023-04-19T02:08:55.861Z,40.78
2023-04-19T02:11:24.551Z,40.97
2023-04-19T02:13:52.879Z,41.33
2023-04-19T02:16:21.632Z,41.41
2023-04-19T02:18:52.252Z,41.31
2023-04-19T02:21:20.634Z,41.27
2023-04-19T02:23:49.093Z,41.52
2023-04-19T02:26:17.651Z,40.98
2023-04-19T02:28:46.077Z,41.53
2023-04-19T02:31:14.432Z,41.61
2023-04-19T02:33:43.692Z,41.27
2023-04-19T02:36:12.842Z,41.21
2023-04-19T02:38:41.716Z,40.89
2023-04-19T02:41:10.176Z,40.71
2023-04-19T02:43:40.810Z,40.51
2023-04-19T02:46:10.734Z,40.67
2023-04-19T02:48:39.046Z,41.10
2023-04-19T02:51:07.717Z,40.67
2023-04-19T02:53:38.900Z,40.80
2023-04-19T02:56:08.096Z,40.52
2023-04-19T02:58:37.030Z,40.30
2023-04-19T03:01:07.137Z,40.62
2023-04-19T03:03:35.628Z,40.74
2023-04-19T03:06:04.212Z,40.81
2023-04-19T03:08:34.084Z,40.64
2023-04-19T03:11:02.648Z,40.69
2023-04-19T03:13:32.042Z,40.84
2023-04-19T03:16:00.770Z,40.81
2023-04-19T03:18:30.426Z,41.02
2023-04-19T03:20:58.752Z,40.77
2023-04-19T03:23:28.992Z,40.91
2023-04-19T03:25:59.347Z,40.97
2023-04-19T03:28:37.039Z,40.99
2023-04-19T03:31:25.852Z,41.11
2023-04-19T03:33:55.210Z,40.89
2023-04-19T03:36:27.990Z,41.26
2023-04-19T03:38:56.528Z,41.11
2023-04-19T03:41:25.909Z,40.84
2023-04-19T03:44:02.146Z,40.81
2023-04-19T03:46:33.658Z,40.65
2023-04-19T03:49:02.152Z,40.60
2023-04-19T03:51:31.821Z,40.58
2023-04-19T03:54:00.587Z,40.46
2023-04-19T03:56:29.191Z,40.50
2023-04-19T03:58:57.907Z,40.58
2023-04-19T04:01:27.003Z,40.39
2023-04-19T04:03:56.218Z,40.21
2023-04-19T04:06:25.324Z,40.30
2023-04-19T04:08:53.938Z,40.32
2023-04-19T04:11:22.546Z,40.23
2023-04-19T04:13:51.361Z,40.00
2023-04-19T04:16:23.135Z,40.28
2023-04-19T04:18:52.318Z,40.24
2023-04-19T04:21:21.530Z,40.03
2023-04-19T04:23:50.093Z,40.05
2023-04-19T04:26:34.344Z,39.72
2023-04-19T04:29:29.245Z,39.46
2023-04-19T04:31:59.698Z,39.63
2023-04-19T04:34:33.231Z,39.43
2023-04-19T04:37:09.298Z,39.25
2023-04-19T04:39:40.087Z,39.13
2023-04-19T04:42:10.900Z,39.19
2023-04-19T04:44:40.128Z,39.59
2023-04-19T04:47:08.677Z,39.59
2023-04-19T04:49:42.398Z,39.37
2023-04-19T04:52:10.742Z,39.39
2023-04-19T04:54:46.031Z,39.31
2023-04-19T04:57:22.037Z,39.23
2023-04-19T04:59:50.404Z,39.26
2023-04-19T05:02:19.823Z,39.15
2023-04-19T05:04:48.649Z,39.40
2023-04-19T05:07:17.048Z,39.23
2023-04-19T05:09:45.545Z,39.37
2023-04-19T05:12:15.643Z,38.85
2023-04-19T05:14:44.026Z,38.88
2023-04-19T05:17:12.623Z,38.31
2023-04-19T05:19:41.086Z,38.87
2023-04-19T05:22:09.510Z,38.55
2023-04-19T05:24:41.817Z,38.97
2023-04-19T05:27:11.532Z,38.83
2023-04-19T05:29:39.991Z,38.90
2023-04-19T05:32:08.398Z,38.55
2023-04-19T05:34:46.554Z,38.40
2023-04-19T05:37:16.219Z,38.37
2023-04-19T05:39:45.021Z,38.38
2023-04-19T05:42:13.520Z,38.67
2023-04-19T05:44:42.087Z,38.52
2023-04-19T05:47:10.454Z,38.68
2023-04-19T05:50:08.239Z,38.59
2023-04-19T05:52:41.227Z,38.53
2023-04-19T05:55:10.234Z,38.46
2023-04-19T05:57:42.725Z,38.62
2023-04-19T06:00:11.776Z,38.29
2023-04-19T06:02:44.814Z,38.50
2023-04-19T06:05:14.897Z,38.48
2023-04-19T06:07:50.603Z,38.34
2023-04-19T06:10:24.241Z,38.31
2023-04-19T06:12:53.199Z,38.40
2023-04-19T06:15:21.918Z,38.42
2023-04-19T06:17:50.466Z,38.26
2023-04-19T06:20:18.739Z,38.39
2023-04-19T06:22:47.396Z,37.92
2023-04-19T06:25:15.967Z,37.80
2023-04-19T06:27:44.185Z,38.03
2023-04-19T06:30:12.963Z,37.79
2023-04-19T06:32:41.567Z,37.89
2023-04-19T06:35:10.299Z,37.86
2023-04-19T06:37:38.626Z,37.83
2023-04-19T06:40:08.637Z,38.07
2023-04-19T06:42:37.698Z,38.01
2023-04-19T06:45:08.654Z,37.71
2023-04-19T06:47:37.738Z,37.93
2023-04-19T06:50:07.021Z,37.80
2023-04-19T06:52:35.416Z,37.85
2023-04-19T06:55:04.047Z,38.08
2023-04-19T06:57:32.307Z,37.96
2023-04-19T07:00:00.977Z,37.97
2023-04-19T07:02:30.184Z,37.89
2023-04-19T07:04:58.647Z,37.58
2023-04-19T07:07:26.989Z,37.47
2023-04-19T07:09:55.270Z,37.66
2023-04-19T07:12:23.874Z,37.63
2023-04-19T07:14:56.627Z,37.76
2023-04-19T07:17:24.916Z,37.58
2023-04-19T07:19:53.496Z,37.48
2023-04-19T07:22:22.540Z,37.41
2023-04-19T07:24:52.359Z,37.57
2023-04-19T07:27:21.194Z,37.58
2023-04-19T07:32:16.179Z,39.86
2023-04-19T07:34:46.055Z,37.03
2023-04-19T07:37:14.515Z,36.94
2023-04-19T07:39:43.108Z,36.77
2023-04-19T07:42:11.645Z,36.96
2023-04-19T07:44:39.893Z,37.19
2023-04-19T07:47:08.192Z,37.12
2023-04-19T07:49:37.879Z,37.21
2023-04-19T07:52:09.225Z,37.00
2023-04-19T07:54:39.461Z,37.08
2023-04-19T07:57:07.895Z,36.96
2023-04-19T07:59:36.598Z,37.13
2023-04-19T08:02:05.202Z,36.95
2023-04-19T08:04:34.400Z,36.83
2023-04-19T08:07:05.073Z,36.92
2023-04-19T08:09:34.500Z,36.70
2023-04-19T08:12:03.012Z,37.06
2023-04-19T08:14:40.330Z,36.88
2023-04-19T08:17:24.614Z,36.65
2023-04-19T08:19:55.222Z,36.72
2023-04-19T08:22:23.598Z,36.09
2023-04-19T08:24:52.260Z,36.44
2023-04-19T08:27:20.897Z,36.28
2023-04-19T08:29:49.997Z,36.28
2023-04-19T08:32:18.389Z,36.24
2023-04-19T08:34:46.841Z,36.41
2023-04-19T08:37:15.200Z,36.19
2023-04-19T08:39:43.579Z,36.38
2023-04-19T08:42:24.547Z,36.37
2023-04-19T08:47:52.063Z,36.03
2023-04-19T08:50:33.633Z,35.47
2023-04-19T08:53:23.748Z,35.77
2023-04-19T08:56:12.945Z,35.84
2023-04-19T09:01:30.899Z,35.65
2023-04-19T09:04:20.796Z,35.60
2023-04-19T09:06:50.998Z,35.51
2023-04-19T09:09:34.024Z,35.64
2023-04-19T09:12:16.445Z,35.36
2023-04-19T09:14:57.879Z,35.19
2023-04-19T09:17:33.632Z,35.14
2023-04-19T09:20:02.030Z,35.33
2023-04-19T09:22:31.903Z,35.08
2023-04-19T09:27:35.601Z,34.86
2023-04-19T09:30:04.799Z,34.26
2023-04-19T09:32:47.530Z,34.75
2023-04-19T09:35:16.658Z,34.27
2023-04-19T09:38:05.597Z,33.94
2023-04-19T09:40:37.871Z,33.86
2023-04-19T09:43:28.995Z,34.22
2023-04-19T09:45:54.941Z,34.26
2023-04-19T09:48:23.487Z,34.29
2023-04-19T09:51:00.709Z,33.84
2023-04-19T09:53:35.317Z,33.63
2023-04-19T09:56:06.383Z,33.93
2023-04-19T09:58:49.009Z,33.70
2023-04-19T10:01:19.696Z,33.89
2023-04-19T10:03:49.715Z,33.84
2023-04-19T10:08:50.555Z,33.75
2023-04-19T10:11:22.132Z,33.19
2023-04-19T10:13:50.446Z,33.78
2023-04-19T10:16:20.472Z,33.43
2023-04-19T10:18:50.276Z,33.28
2023-04-19T10:21:19.557Z,33.20
2023-04-19T10:23:48.106Z,33.49
2023-04-19T10:26:16.934Z,32.52
2023-04-19T10:28:45.460Z,32.96
2023-04-19T10:31:13.900Z,33.03
2023-04-19T10:33:43.043Z,32.97
2023-04-19T10:36:15.843Z,33.37
2023-04-19T10:38:48.550Z,33.21
2023-04-19T10:41:18.873Z,32.73
2023-04-19T10:43:48.859Z,32.62
2023-04-19T10:46:37.106Z,32.40
2023-04-19T10:49:06.203Z,32.49
2023-04-19T10:51:44.567Z,32.04
2023-04-19T10:54:39.574Z,32.22
2023-04-19T10:57:10.402Z,32.27
2023-04-19T10:59:40.521Z,32.63
2023-04-19T11:02:25.362Z,32.76
2023-04-19T11:04:53.964Z,32.56
2023-04-19T11:07:22.620Z,32.25
2023-04-19T11:09:52.327Z,32.43
2023-04-19T11:12:21.203Z,32.36
2023-04-19T11:14:53.590Z,32.27
2023-04-19T11:17:28.043Z,32.20
2023-04-19T11:19:56.715Z,32.09
2023-04-19T11:22:32.988Z,32.08
2023-04-19T11:25:14.278Z,32.33
2023-04-19T11:27:47.310Z,32.31
2023-04-19T11:30:21.892Z,32.46
2023-04-19T11:32:54.837Z,32.35
2023-04-19T11:35:24.794Z,32.68
2023-04-19T11:37:53.848Z,32.68
2023-04-19T11:40:23.148Z,32.77
2023-04-19T11:43:01.982Z,32.43
2023-04-19T11:45:38.267Z,32.37
2023-04-19T11:48:08.272Z,32.66
2023-04-19T11:50:43.961Z,32.42
2023-04-19T11:53:19.477Z,32.64
2023-04-19T11:55:54.776Z,32.84
2023-04-19T11:58:30.114Z,33.09
2023-04-19T12:01:22.315Z,32.96
2023-04-19T12:03:54.805Z,33.17
2023-04-19T12:06:24.150Z,32.98
2023-04-19T12:08:53.447Z,33.20
2023-04-19T12:11:23.723Z,33.21
2023-04-19T12:14:15.971Z,32.94
2023-04-19T12:16:45.336Z,32.95
2023-04-19T12:19:20.806Z,32.86
2023-04-19T12:21:49.344Z,33.31
2023-04-19T12:24:18.067Z,33.15
2023-04-19T12:26:57.042Z,33.25
2023-04-19T12:29:25.500Z,33.39
2023-04-19T12:31:54.310Z,33.43
2023-04-19T12:34:23.265Z,33.54
2023-04-19T12:36:51.799Z,33.62
2023-04-19T12:39:20.086Z,33.67
2023-04-19T12:41:51.463Z,33.99
2023-04-19T12:44:19.990Z,34.27
2023-04-19T12:46:48.464Z,34.54
2023-04-19T12:49:22.708Z,34.51
2023-04-19T12:51:51.080Z,34.72
2023-04-19T12:54:19.358Z,34.80
2023-04-19T12:56:47.684Z,34.71
2023-04-19T12:59:16.484Z,34.72
2023-04-19T13:01:45.086Z,34.76
2023-04-19T13:04:13.846Z,35.00
2023-04-19T13:06:42.775Z,35.11
2023-04-19T13:09:14.896Z,35.04
2023-04-19T13:11:44.075Z,35.21
2023-04-19T13:14:12.399Z,35.21
2023-04-19T13:16:40.704Z,35.31
2023-04-19T13:19:09.072Z,35.23
2023-04-19T13:21:37.416Z,35.27
2023-04-19T13:24:05.994Z,35.17
2023-04-19T13:26:34.782Z,35.10
2023-04-19T13:29:03.413Z,35.48
2023-04-19T13:31:32.423Z,35.40
2023-04-19T13:34:01.490Z,35.39
2023-04-19T13:36:31.310Z,35.50
2023-04-19T13:39:00.077Z,35.51
2023-04-19T13:41:28.561Z,35.47
2023-04-19T13:43:57.099Z,35.60
2023-04-19T13:46:25.486Z,35.82
2023-04-19T13:48:53.915Z,36.15
2023-04-19T13:51:22.474Z,36.07
2023-04-19T13:53:50.699Z,36.14
2023-04-19T13:56:19.292Z,36.29
2023-04-19T13:58:47.567Z,36.36
2023-04-19T14:01:16.044Z,36.44
2023-04-19T14:03:44.944Z,36.34
2023-04-19T14:06:13.369Z,36.67
2023-04-19T14:08:42.142Z,36.64
2023-04-19T14:11:10.595Z,36.71
2023-04-19T14:13:39.106Z,36.85
2023-04-19T14:16:07.980Z,36.83
2023-04-19T14:18:36.659Z,36.81
2023-04-19T14:21:05.306Z,36.97
2023-04-19T14:23:33.834Z,36.92
2023-04-19T14:26:02.513Z,36.72
2023-04-19T14:28:31.880Z,37.02
2023-04-19T14:31:00.285Z,37.18
2023-04-19T14:33:28.689Z,37.33
2023-04-19T14:35:56.978Z,37.31
2023-04-19T14:38:25.470Z,37.20
2023-04-19T14:40:54.360Z,37.51
2023-04-19T14:43:22.852Z,37.58
2023-04-19T14:45:51.787Z,37.56
2023-04-19T14:48:22.233Z,37.68
2023-04-19T14:50:51.159Z,37.58
2023-04-19T14:53:19.707Z,37.42
2023-04-19T14:55:48.207Z,37.50
2023-04-19T14:58:17.055Z,37.33
2023-04-19T15:00:45.919Z,37.23
2023-04-19T15:03:15.050Z,37.23
2023-04-19T15:05:44.212Z,37.22
2023-04-19T15:08:26.978Z,37.20
2023-04-19T15:10:58.774Z,36.98
2023-04-19T15:13:27.270Z,36.93
2023-04-19T15:15:56.074Z,36.87
2023-04-19T15:18:24.966Z,37.01
2023-04-19T15:20:53.548Z,36.98
2023-04-19T15:23:23.686Z,36.94
2023-04-19T15:25:52.578Z,36.89
2023-04-19T15:28:21.199Z,36.88
2023-04-19T15:31:00.416Z,36.98
2023-04-19T15:33:28.875Z,36.90
2023-04-19T15:35:57.270Z,36.79
2023-04-19T15:38:27.612Z,36.69
2023-04-19T15:40:56.684Z,36.67
2023-04-19T15:43:25.441Z,36.56
2023-04-19T15:45:53.862Z,36.52
2023-04-19T15:48:22.546Z,36.67
2023-04-19T15:50:51.033Z,36.40
2023-04-19T15:53:23.437Z,36.12
2023-04-19T15:55:55.329Z,36.30
2023-04-19T15:58:24.456Z,36.34
2023-04-19T16:00:52.894Z,36.28
2023-04-19T16:03:21.369Z,36.28
2023-04-19T16:05:52.740Z,36.26
2023-04-19T16:08:20.951Z,36.29
2023-04-19T16:10:49.603Z,36.30
2023-04-19T16:13:18.152Z,36.23
2023-04-19T16:15:46.967Z,36.33
2023-04-19T16:18:15.506Z,36.20
2023-04-19T16:20:43.805Z,36.15
2023-04-19T16:23:14.680Z,36.13
2023-04-19T16:25:43.347Z,36.15
2023-04-19T16:28:11.843Z,36.05
2023-04-19T16:30:40.170Z,36.09
2023-04-19T16:33:08.491Z,36.06
2023-04-19T16:35:37.050Z,36.01
2023-04-19T16:38:07.156Z,35.78
2023-04-19T16:40:36.054Z,36.08
2023-04-19T16:43:06.531Z,35.93
2023-04-19T16:45:34.958Z,36.01
2023-04-19T16:48:06.339Z,36.22
2023-04-19T16:50:35.709Z,36.12
2023-04-19T16:53:03.937Z,36.14
2023-04-19T16:55:32.228Z,36.08
2023-04-19T16:58:00.744Z,36.26
2023-04-19T17:00:29.756Z,36.23
2023-04-19T17:02:58.372Z,36.53
2023-04-19T17:05:26.850Z,36.39
2023-04-19T17:07:56.851Z,36.31
2023-04-19T17:10:26.461Z,36.90
2023-04-19T17:12:56.025Z,36.63
2023-04-19T17:15:24.577Z,36.33
2023-04-19T17:17:53.094Z,36.27
2023-04-19T17:20:21.699Z,36.30
2023-04-19T17:22:50.006Z,36.65
2023-04-19T17:25:19.533Z,36.60
2023-04-19T17:27:49.654Z,36.68
2023-04-19T17:30:17.999Z,36.39
2023-04-19T17:32:46.508Z,36.46
2023-04-19T17:35:15.084Z,36.57
2023-04-19T17:37:43.919Z,36.59
2023-04-19T17:40:12.692Z,36.63
2023-04-19T17:42:41.189Z,36.56
2023-04-19T17:45:11.104Z,36.58
2023-04-19T17:47:39.923Z,36.86
2023-04-19T17:50:10.487Z,37.04
2023-04-19T17:52:40.194Z,37.04
2023-04-19T17:55:09.037Z,36.87
2023-04-19T17:57:37.512Z,37.03
2023-04-19T18:00:07.936Z,37.14
2023-04-19T18:02:40.732Z,37.04
2023-04-19T18:05:09.765Z,36.94
2023-04-19T18:07:40.157Z,36.99
2023-04-19T18:10:09.176Z,36.99
2023-04-19T18:12:37.776Z,36.94
2023-04-19T18:15:06.955Z,37.04
2023-04-19T18:17:35.988Z,37.03
2023-04-19T18:20:06.217Z,36.99
2023-04-19T18:22:34.671Z,36.80
2023-04-19T18:25:03.950Z,36.89
2023-04-19T18:27:32.916Z,36.85
2023-04-19T18:30:05.213Z,36.77
2023-04-19T18:32:34.239Z,36.79
2023-04-19T18:35:05.642Z,36.77
2023-04-19T18:37:33.969Z,36.79
2023-04-19T18:40:03.144Z,36.57
2023-04-19T18:42:31.808Z,36.64
2023-04-19T18:45:00.165Z,36.67
2023-04-19T18:47:28.577Z,36.60
2023-04-19T18:50:04.486Z,36.71
2023-04-19T18:52:35.437Z,36.73
2023-04-19T18:55:05.355Z,36.68
2023-04-19T18:57:35.444Z,36.76
2023-04-19T19:00:06.438Z,36.81
2023-04-19T19:02:37.684Z,36.75
2023-04-19T19:05:08.563Z,36.69
2023-04-19T19:07:38.051Z,36.83
2023-04-19T19:10:18.290Z,36.75
2023-04-19T19:12:50.042Z,36.82
2023-04-19T19:15:18.749Z,36.84
2023-04-19T19:17:49.698Z,37.16
2023-04-19T19:20:19.819Z,37.03
2023-04-19T19:22:48.559Z,37.00
2023-04-19T19:25:17.374Z,37.04
2023-04-19T19:28:05.437Z,37.09
2023-04-19T19:30:35.888Z,37.18
2023-04-19T19:33:05.190Z,37.07
2023-04-19T19:35:33.994Z,37.17
2023-04-19T19:38:02.469Z,37.06
2023-04-19T19:40:32.893Z,37.26
2023-04-19T19:43:01.805Z,37.42
2023-04-19T19:48:40.706Z,40.11
2023-04-19T19:51:31.381Z,37.19
2023-04-19T19:53:59.225Z,37.09
2023-04-19T19:56:28.275Z,37.25
2023-04-19T19:58:57.773Z,37.21
2023-04-19T20:01:27.426Z,37.31
2023-04-19T20:03:56.583Z,37.53
2023-04-19T20:07:21.479Z,37.36
2023-04-19T20:09:14.265Z,37.44
2023-04-19T20:11:42.558Z,37.40
2023-04-19T20:14:10.919Z,37.26
2023-04-19T20:16:39.664Z,37.47
2023-04-19T20:19:10.385Z,37.44
2023-04-19T20:21:39.486Z,37.21
2023-04-19T20:24:08.867Z,37.20
2023-04-19T20:26:37.491Z,37.41
2023-04-19T20:29:05.941Z,37.26
2023-04-19T20:31:34.976Z,37.22
2023-04-19T20:34:04.441Z,37.03
2023-04-19T20:36:33.205Z,37.21
2023-04-19T20:39:06.576Z,37.11
2023-04-19T20:41:35.798Z,37.34
2023-04-19T20:44:05.235Z,37.25
2023-04-19T20:46:34.780Z,37.32
2023-04-19T20:49:03.556Z,37.43
2023-04-19T20:51:32.112Z,37.32
2023-04-19T20:54:00.397Z,37.45
2023-04-19T20:56:28.741Z,37.44
2023-04-19T20:58:57.244Z,37.49
2023-04-19T21:01:25.553Z,37.38
2023-04-19T21:03:53.986Z,37.38
2023-04-19T21:06:23.412Z,37.30
2023-04-19T21:08:51.932Z,37.10
2023-04-19T21:11:20.263Z,37.11
2023-04-19T21:13:48.959Z,37.12
2023-04-19T21:16:17.354Z,36.92
2023-04-19T21:18:45.636Z,37.03
2023-04-19T21:21:13.894Z,37.11
2023-04-19T21:23:42.252Z,36.98
2023-04-19T21:26:11.550Z,36.92
2023-04-19T21:28:39.804Z,37.01
2023-04-19T21:31:09.064Z,37.00
2023-04-19T21:33:37.515Z,36.89
2023-04-19T21:36:06.461Z,37.09
2023-04-19T21:38:34.900Z,37.02
2023-04-19T21:41:03.892Z,36.87
2023-04-19T21:43:32.140Z,36.83
2023-04-19T21:46:02.109Z,36.79
2023-04-19T21:48:31.437Z,36.91
2023-04-19T21:51:00.892Z,36.89
2023-04-19T21:53:29.199Z,36.83
2023-04-19T21:55:57.506Z,36.78
2023-04-19T21:58:26.042Z,36.91
2023-04-19T22:00:54.413Z,36.70
2023-04-19T22:03:23.088Z,36.69
2023-04-19T22:05:51.900Z,36.62
2023-04-19T22:08:22.339Z,36.56
2023-04-19T22:10:50.783Z,36.69
2023-04-19T22:13:22.264Z,36.74
2023-04-19T22:15:50.803Z,36.61
2023-04-19T22:18:19.166Z,36.59
2023-04-19T22:20:49.893Z,36.61
2023-04-19T22:23:18.354Z,36.52
2023-04-19T22:25:47.060Z,36.61
2023-04-19T22:28:15.335Z,36.53
2023-04-19T22:30:43.692Z,36.62
2023-04-19T22:33:11.956Z,36.73
2023-04-19T22:35:41.016Z,36.54
2023-04-19T22:38:09.370Z,36.46
2023-04-19T22:40:37.827Z,36.46
2023-04-19T22:43:06.470Z,36.49
2023-04-19T22:45:34.898Z,36.47
2023-04-19T22:48:03.552Z,36.41
2023-04-19T22:50:32.144Z,36.49
2023-04-19T22:53:00.473Z,36.44
2023-04-19T22:55:28.751Z,36.31
2023-04-19T22:57:57.015Z,36.17
2023-04-19T23:00:26.734Z,36.13
2023-04-19T23:02:55.585Z,36.22
2023-04-19T23:05:26.996Z,36.09
2023-04-19T23:07:57.446Z,36.19
2023-04-19T23:10:26.698Z,36.00
2023-04-19T23:12:55.044Z,36.09
2023-04-19T23:15:25.002Z,35.97
2023-04-19T23:17:53.688Z,35.99
2023-04-19T23:20:22.090Z,36.01
2023-04-19T23:22:50.630Z,35.96
2023-04-19T23:25:18.831Z,36.02
2023-04-19T23:27:47.435Z,35.91
2023-04-19T23:30:15.986Z,35.84
2023-04-19T23:32:44.671Z,35.70
2023-04-19T23:35:13.149Z,35.91
2023-04-19T23:37:41.567Z,35.88
2023-04-19T23:40:10.532Z,35.62
2023-04-19T23:42:38.875Z,35.70
2023-04-19T23:45:07.682Z,35.62
2023-04-19T23:47:36.394Z,35.72
2023-04-19T23:50:05.084Z,35.70
2023-04-19T23:52:33.531Z,35.58
2023-04-19T23:55:01.726Z,35.59
2023-04-19T23:57:30.314Z,35.59
2023-04-19T23:59:58.723Z,35.46
